Time;durP1;ratioP1;P1;durP2;ratioP2;P2;SDS_P1;SDS_P2;PMS_P1;PMS_P2;Temp;Humidity;BMP_temperature;BMP_pressure;BME280_temperature;BME280_humidity;BME280_pressure;Samples;Min_cycle;Max_cycle;Signal;HPM_P1;HPM_P2
2024/03/23 00:00:24;;;;;;;;;;;;;;;5.34;100.00;100582.84;6154982;23;20524;-74
2024/03/23 00:02:49;;;;;;;;;;;;;;;5.40;100.00;100593.69;6155341;23;19916;-73
2024/03/23 00:05:15;;;;;;;;;;;;;;;5.27;100.00;100598.72;6155285;23;20384;-73
2024/03/23 00:07:41;;;;;;;;;;;;;;;5.14;100.00;100596.56;6154730;23;20285;-73
2024/03/23 00:10:06;;;;;;;;;;;;;;;5.06;100.00;100585.91;6155319;23;20472;-73
2024/03/23 00:12:32;;;;;;;;;;;;;;;5.07;100.00;100583.06;6154933;23;20314;-73
2024/03/23 00:14:58;;;;;;;;;;;;;;;5.03;100.00;100579.03;6153875;23;20733;-73
2024/03/23 00:17:24;;;;;;;;;;;;;;;4.98;100.00;100576.88;6156429;23;19912;-73
2024/03/23 00:19:50;;;;;;;;;;;;;;;4.95;100.00;100557.72;6155029;23;19920;-73
2024/03/23 00:22:15;;;;;;;;;;;;;;;4.90;100.00;100563.56;6154126;23;19913;-73
2024/03/23 00:24:41;;;;;;;;;;;;;;;4.93;100.00;100552.56;6155692;23;20325;-73
2024/03/23 00:27:07;;;;;;;;;;;;;;;4.88;100.00;100554.88;6155219;23;20265;-73
2024/03/23 00:29:33;;;;;;;;;;;;;;;4.96;100.00;100546.88;6153958;23;20412;-73
2024/03/23 00:31:58;;;;;;;;;;;;;;;4.93;100.00;100546.38;6156259;23;19959;-74
2024/03/23 00:34:24;;;;;;;;;;;;;;;4.84;100.00;100549.06;6154870;23;19994;-74
2024/03/23 00:36:50;;;;;;;;;;;;;;;4.75;100.00;100547.38;6154336;23;20225;-74
2024/03/23 00:39:15;;;;;;;;;;;;;;;4.75;100.00;100541.22;6155970;23;20299;-74
2024/03/23 00:41:44;;;;;;;;;;;;;;;4.72;100.00;100545.03;6155395;23;19917;-74
2024/03/23 00:44:10;;;;;;;;;;;;;;;4.67;100.00;100534.88;6154264;23;20288;-72
2024/03/23 00:46:36;;;;;;;;;;;;;;;4.67;100.00;100542.88;6156161;23;19913;-73
2024/03/23 00:49:02;;;;;;;;;;;;;;;4.74;100.00;100539.56;6155447;23;19916;-73
2024/03/23 00:51:29;;;;;;;;;;;;;;;4.66;100.00;100535.88;6153910;23;20341;-74
2024/03/23 00:53:57;;;;;;;;;;;;;;;4.62;100.00;100539.88;6155928;23;19923;-73
2024/03/23 00:56:24;;;;;;;;;;;;;;;4.59;100.00;100539.38;6155215;23;19919;-73
2024/03/23 00:58:49;;;;;;;;;;;;;;;4.54;100.00;100532.69;6153684;23;20322;-74
2024/03/23 01:01:18;;;;;;;;;;;;;;;4.55;100.00;100522.88;6154717;23;19913;-74
2024/03/23 01:03:43;;;;;;;;;;;;;;;4.58;100.00;100525.22;6154503;23;20253;-74
2024/03/23 01:06:09;;;;;;;;;;;;;;;4.61;100.00;100527.53;6154346;23;19913;-73
2024/03/23 01:08:34;;;;;;;;;;;;;;;4.57;100.00;100518.22;6157033;23;19983;-74
2024/03/23 01:11:00;;;;;;;;;;;;;;;4.52;100.00;100518.69;6155019;23;19919;-74
2024/03/23 01:13:25;;;;;;;;;;;;;;;4.46;100.00;100513.19;6153805;23;19991;-74
2024/03/23 01:15:51;;;;;;;;;;;;;;;4.43;100.00;100513.53;6155887;23;20376;-74
2024/03/23 01:18:17;;;;;;;;;;;;;;;4.39;100.00;100505.88;6154073;23;19991;-73
2024/03/23 01:20:42;;;;;;;;;;;;;;;4.39;100.00;100505.03;6156699;23;19913;-74
2024/03/23 01:23:08;;;;;;;;;;;;;;;4.37;100.00;100505.22;6156524;23;19916;-74
2024/03/23 01:25:33;;;;;;;;;;;;;;;4.43;100.00;100513.53;6155902;23;19928;-74
2024/03/23 01:27:58;;;;;;;;;;;;;;;4.42;100.00;100510.03;6157096;23;19916;-74
2024/03/23 01:30:23;;;;;;;;;;;;;;;4.43;100.00;100513.53;6159365;23;19913;-73
2024/03/23 01:32:49;;;;;;;;;;;;;;;4.44;100.00;100508.03;6157124;23;19913;-73
2024/03/23 01:35:14;;;;;;;;;;;;;;;4.42;100.00;100501.19;6157537;23;19923;-73
2024/03/23 01:37:39;;;;;;;;;;;;;;;4.39;100.00;100499.69;6158604;23;20257;-73
2024/03/23 01:40:05;;;;;;;;;;;;;;;4.35;100.00;100503.69;6157385;23;19913;-73
2024/03/23 01:42:30;;;;;;;;;;;;;;;4.44;100.00;100499.19;6164722;23;19922;-74
2024/03/23 01:44:55;;;;;;;;;;;;;;;4.41;100.00;100500.38;6161268;23;20352;-73
2024/03/23 01:47:20;;;;;;;;;;;;;;;4.35;100.00;100491.22;6158926;23;19913;-74
2024/03/23 01:49:46;;;;;;;;;;;;;;;4.39;100.00;100487.22;6157709;23;20376;-73
2024/03/23 01:52:11;;;;;;;;;;;;;;;4.36;100.00;100478.72;6161176;23;19923;-74
2024/03/23 01:54:36;;;;;;;;;;;;;;;4.40;100.00;100480.06;6162820;23;20060;-74
2024/03/23 01:57:01;;;;;;;;;;;;;;;4.39;100.00;100467.72;6130855;23;19919;-74
2024/03/23 01:59:27;;;;;;;;;;;;;;;4.38;100.00;100474.03;6157118;23;19952;-73
2024/03/23 02:01:52;;;;;;;;;;;;;;;4.35;100.00;100477.88;6130370;23;19919;-73
2024/03/23 02:04:17;;;;;;;;;;;;;;;4.33;100.00;100481.69;6156343;23;19940;-73
2024/03/23 02:06:45;;;;;;;;;;;;;;;4.31;100.00;100470.41;6157128;23;20003;-73
2024/03/23 02:09:10;;;;;;;;;;;;;;;4.32;100.00;100469.41;6156285;23;19951;-72
2024/03/23 02:11:39;;;;;;;;;;;;;;;4.31;100.00;100478.38;6129742;23;19913;-73
2024/03/23 02:14:04;;;;;;;;;;;;;;;4.34;100.00;100484.22;6156203;23;19913;-73
2024/03/23 02:16:29;;;;;;;;;;;;;;;4.34;100.00;100478.88;6157038;23;20243;-73
2024/03/23 02:18:55;;;;;;;;;;;;;;;4.35;100.00;100475.22;6156658;23;20324;-73
2024/03/23 02:21:20;;;;;;;;;;;;;;;4.33;100.00;100463.91;6156836;23;20345;-73
2024/03/23 02:23:45;;;;;;;;;;;;;;;4.36;100.00;100476.03;6156515;23;19909;-73
2024/03/23 02:26:11;;;;;;;;;;;;;;;4.36;100.00;100470.72;6155880;23;20316;-73
2024/03/23 02:28:36;;;;;;;;;;;;;;;4.38;100.00;100458.91;6155446;23;20021;-74
2024/03/23 02:31:02;;;;;;;;;;;;;;;4.37;100.00;100437.72;6156000;23;19987;-73
2024/03/23 02:33:27;;;;;;;;;;;;;;;4.33;100.00;100439.91;6130098;23;20132;-73
2024/03/23 02:35:55;;;;;;;;;;;;;;;4.33;100.00;100433.72;6154698;23;19940;-74
2024/03/23 02:38:20;;;;;;;;;;;;;;;4.33;100.00;100434.56;6157653;23;19917;-74
2024/03/23 02:40:45;;;;;;;;;;;;;;;4.32;100.00;100432.09;6156242;23;19919;-74
2024/03/23 02:43:11;;;;;;;;;;;;;;;4.36;100.00;100428.91;6155194;23;19991;-74
2024/03/23 02:45:36;;;;;;;;;;;;;;;4.45;100.00;100434.22;6157193;23;19908;-74
2024/03/23 02:48:01;;;;;;;;;;;;;;;4.46;100.00;100439.41;6156069;23;20050;-74
2024/03/23 02:50:26;;;;;;;;;;;;;;;4.45;100.00;100445.75;6154943;23;20015;-74
2024/03/23 02:52:52;;;;;;;;;;;;;;;4.45;100.00;100443.06;6155505;23;19975;-75
2024/03/23 02:55:17;;;;;;;;;;;;;;;4.45;100.00;100436.91;6155836;23;19924;-73
2024/03/23 02:57:42;;;;;;;;;;;;;;;4.40;100.00;100424.94;6154968;23;19982;-72
2024/03/23 03:00:09;;;;;;;;;;;;;;;4.37;100.00;100427.94;6156434;23;19912;-72
2024/03/23 03:02:34;;;;;;;;;;;;;;;4.51;100.00;100430.91;6155020;23;20270;-72
2024/03/23 03:04:59;;;;;;;;;;;;;;;4.44;100.00;100435.22;6154821;23;20321;-73
2024/03/23 03:07:24;;;;;;;;;;;;;;;4.39;100.00;100433.91;6156554;23;19912;-72
2024/03/23 03:09:50;;;;;;;;;;;;;;;4.44;100.00;100429.91;6156408;23;20035;-73
2024/03/23 03:12:15;;;;;;;;;;;;;;;4.41;100.00;100431.09;6154559;23;19959;-73
2024/03/23 03:14:40;;;;;;;;;;;;;;;4.37;100.00;100438.59;6156467;23;20348;-73
2024/03/23 03:17:06;;;;;;;;;;;;;;;4.27;100.00;100432.56;6156506;23;20254;-73
2024/03/23 03:19:32;;;;;;;;;;;;;;;4.28;100.00;100430.75;6154955;23;20229;-73
2024/03/23 03:21:57;;;;;;;;;;;;;;;4.28;100.00;100430.75;6156414;23;19914;-73
2024/03/23 03:24:22;;;;;;;;;;;;;;;4.20;100.00;100431.59;6155649;23;20245;-73
2024/03/23 03:26:47;;;;;;;;;;;;;;;4.13;100.00;100430.56;6154714;23;19987;-73
2024/03/23 03:29:13;;;;;;;;;;;;;;;4.06;100.00;100425.88;6155878;23;19919;-73
2024/03/23 03:31:41;;;;;;;;;;;;;;;4.10;100.00;100437.06;6156476;23;19917;-73
2024/03/23 03:34:07;;;;;;;;;;;;;;;4.02;100.00;100435.22;6154590;23;19916;-73
2024/03/23 03:36:32;;;;;;;;;;;;;;;4.00;100.00;100431.88;6155482;23;19983;-73
2024/03/23 03:38:57;;;;;;;;;;;;;;;3.98;100.00;100428.56;6154926;23;19917;-72
2024/03/23 03:41:25;;;;;;;;;;;;;;;3.91;100.00;100430.19;6154835;23;19912;-73
2024/03/23 03:43:51;;;;;;;;;;;;;;;3.81;100.00;100419.69;6156246;23;19912;-73
2024/03/23 03:46:16;;;;;;;;;;;;;;;3.75;100.00;100426.50;6155644;23;20094;-73
2024/03/23 03:48:41;;;;;;;;;;;;;;;3.67;100.00;100417.66;6156158;23;19919;-73
2024/03/23 03:51:09;;;;;;;;;;;;;;;3.65;100.00;100425.81;6160437;23;19920;-73
2024/03/23 03:53:34;;;;;;;;;;;;;;;3.61;100.00;100419.16;6159392;23;20337;-73
2024/03/23 03:56:02;;;;;;;;;;;;;;;3.56;100.00;100410.81;6155366;23;20360;-73
2024/03/23 03:58:28;;;;;;;;;;;;;;;3.48;100.00;100407.16;6155990;23;19924;-74
2024/03/23 04:00:53;;;;;;;;;;;;;;;3.42;100.00;100405.13;6156316;23;20211;-74
2024/03/23 04:03:18;;;;;;;;;;;;;;;3.35;100.00;100404.13;6155751;23;19992;-74
2024/03/23 04:05:48;;;;;;;;;;;;;;;3.32;100.00;100409.75;6155879;23;19920;-73
2024/03/23 04:08:13;;;;;;;;;;;;;;;3.32;100.00;100399.09;6129702;23;19968;-73
2024/03/23 04:10:39;;;;;;;;;;;;;;;3.29;100.00;100407.41;6155323;23;20236;-75
2024/03/23 04:13:04;;;;;;;;;;;;;;;3.24;100.00;100401.72;6155088;23;19916;-74
2024/03/23 04:15:29;;;;;;;;;;;;;;;3.27;100.00;100412.06;6155568;23;19916;-74
2024/03/23 04:17:55;;;;;;;;;;;;;;;3.17;100.00;100405.03;6154567;23;19951;-74
2024/03/23 04:20:20;;;;;;;;;;;;;;;3.16;100.00;100407.84;6154852;23;19912;-74
2024/03/23 04:22:45;;;;;;;;;;;;;;;3.16;100.00;100410.50;6155666;23;19909;-75
2024/03/23 04:25:11;;;;;;;;;;;;;;;3.13;100.00;100406.34;6154705;23;19912;-74
2024/03/23 04:27:36;;;;;;;;;;;;;;;3.13;100.00;100394.84;6155380;23;19920;-74
2024/03/23 04:30:03;;;;;;;;;;;;;;;3.14;100.00;100392.06;6155298;23;19908;-73
2024/03/23 04:32:28;;;;;;;;;;;;;;;3.12;100.00;100395.84;6155357;23;20222;-73
2024/03/23 04:34:54;;;;;;;;;;;;;;;3.02;100.00;100391.50;6154618;23;19936;-74
2024/03/23 04:37:20;;;;;;;;;;;;;;;3.00;100.00;100390.00;6155150;23;19916;-74
2024/03/23 04:39:45;;;;;;;;;;;;;;;2.97;100.00;100387.66;6155196;23;19923;-74
2024/03/23 04:42:10;;;;;;;;;;;;;;;2.98;100.00;100391.97;6153902;23;19920;-74
2024/03/23 04:44:35;;;;;;;;;;;;;;;2.99;100.00;100398.97;6156564;23;19944;-74
2024/03/23 04:47:00;;;;;;;;;;;;;;;2.93;100.00;100395.09;6155305;23;20340;-74
2024/03/23 04:49:26;;;;;;;;;;;;;;;2.91;100.00;100394.44;6154014;23;20313;-74
2024/03/23 04:51:51;;;;;;;;;;;;;;;2.88;100.00;100387.59;6155242;23;19916;-75
2024/03/23 04:54:16;;;;;;;;;;;;;;;2.90;100.00;100387.47;6155743;23;19959;-73
2024/03/23 04:56:42;;;;;;;;;;;;;;;2.86;100.00;100386.91;6148064;23;19988;-74
2024/03/23 04:59:07;;;;;;;;;;;;;;;2.82;100.00;100388.25;6152340;23;20333;-73
2024/03/23 05:01:32;;;;;;;;;;;;;;;2.85;100.00;100381.78;6152378;23;20535;-73
2024/03/23 05:03:57;;;;;;;;;;;;;;;2.81;100.00;100381.25;6151302;23;19995;-74
2024/03/23 05:06:23;;;;;;;;;;;;;;;2.78;100.00;100380.72;6153089;23;19940;-74
2024/03/23 05:08:49;;;;;;;;;;;;;;;2.76;100.00;100374.72;6153162;23;20033;-74
2024/03/23 05:11:15;;;;;;;;;;;;;;;2.76;100.00;100380.91;6150802;23;20066;-73
2024/03/23 05:13:41;;;;;;;;;;;;;;;2.74;100.00;100374.91;6152443;23;19912;-74
2024/03/23 05:16:06;;;;;;;;;;;;;;;2.77;100.00;100385.22;6153006;23;19939;-74
2024/03/23 05:18:31;;;;;;;;;;;;;;;2.77;100.00;100387.03;6150995;23;19924;-75
2024/03/23 05:20:57;;;;;;;;;;;;;;;2.73;100.00;100386.53;6152286;23;19916;-74
2024/03/23 05:23:23;;;;;;;;;;;;;;;2.73;100.00;100378.53;6153367;23;19917;-74
2024/03/23 05:25:48;;;;;;;;;;;;;;;2.74;100.00;100390.84;6152123;23;20353;-74
2024/03/23 05:28:13;;;;;;;;;;;;;;;2.73;100.00;100383.88;6152555;23;19913;-73
2024/03/23 05:30:39;;;;;;;;;;;;;;;2.78;100.00;100383.38;6152818;23;19948;-74
2024/03/23 05:33:05;;;;;;;;;;;;;;;2.78;100.00;100389.53;6151581;23;19917;-74
2024/03/23 05:35:30;;;;;;;;;;;;;;;2.78;100.00;100391.34;6152748;23;20349;-74
2024/03/23 05:37:55;;;;;;;;;;;;;;;2.81;100.00;100397.22;6152879;23;19916;-74
2024/03/23 05:40:23;;;;;;;;;;;;;;;2.87;100.00;100383.28;6151985;23;19987;-73
2024/03/23 05:42:49;;;;;;;;;;;;;;;2.90;100.00;100389.28;6151817;23;19919;-73
2024/03/23 05:45:14;;;;;;;;;;;;;;;2.88;100.00;100382.28;6153489;23;19916;-75
2024/03/23 05:47:42;;;;;;;;;;;;;;;2.91;100.00;100385.63;6151042;23;19991;-75
2024/03/23 05:50:09;;;;;;;;;;;;;;;3.01;100.00;100381.00;6153400;23;19947;-74
2024/03/23 05:52:35;;;;;;;;;;;;;;;3.01;100.00;100386.31;6157601;23;19916;-74
2024/03/23 05:55:00;;;;;;;;;;;;;;;3.06;100.00;100392.00;6159110;23;19924;-73
2024/03/23 05:57:25;;;;;;;;;;;;;;;3.07;100.00;100391.00;6154700;23;19989;-74
2024/03/23 05:59:51;;;;;;;;;;;;;;;3.06;100.00;100405.31;6156503;23;20700;-73
2024/03/23 06:02:16;;;;;;;;;;;;;;;3.07;100.00;100398.19;6154292;23;20228;-74
2024/03/23 06:04:41;;;;;;;;;;;;;;;3.13;100.00;100406.34;6152769;23;19940;-73
2024/03/23 06:07:07;;;;;;;;;;;;;;;3.25;100.00;100406.06;6152936;23;19935;-74
2024/03/23 06:09:32;;;;;;;;;;;;;;;3.43;100.00;100400.66;6154279;23;19913;-73
2024/03/23 06:11:57;;;;;;;;;;;;;;;3.81;100.00;100402.91;6154121;23;20326;-74
2024/03/23 06:14:23;;;;;;;;;;;;;;;4.00;100.00;100397.28;6155093;23;19913;-75
2024/03/23 06:16:49;;;;;;;;;;;;;;;4.22;100.00;100405.59;6158069;23;19940;-74
2024/03/23 06:19:14;;;;;;;;;;;;;;;4.53;100.00;100408.41;6156217;23;19912;-74
2024/03/23 06:21:43;;;;;;;;;;;;;;;4.42;100.00;100402.59;6156066;23;19919;-74
2024/03/23 06:24:08;;;;;;;;;;;;;;;4.38;100.00;100402.94;6156606;23;20035;-74
2024/03/23 06:26:33;;;;;;;;;;;;;;;4.33;100.00;100401.75;6156563;23;19913;-73
2024/03/23 06:28:59;;;;;;;;;;;;;;;4.85;100.00;100397.84;6155675;23;19920;-74
2024/03/23 06:31:24;;;;;;;;;;;;;;;5.36;100.00;100407.34;6154794;23;19917;-74
2024/03/23 06:33:49;;;;;;;;;;;;;;;6.53;100.00;100415.28;6156020;23;19971;-74
2024/03/23 06:36:19;;;;;;;;;;;;;;;7.03;100.00;100396.06;6156135;23;19976;-74
2024/03/23 06:38:45;;;;;;;;;;;;;;;7.41;100.00;100406.63;6154345;23;19916;-76
2024/03/23 06:41:18;;;;;;;;;;;;;;;8.30;100.00;100415.38;6155993;23;20407;-76
2024/03/23 06:43:43;;;;;;;;;;;;;;;8.78;94.12;100414.78;6155610;23;19920;-76
2024/03/23 06:46:08;;;;;;;;;;;;;;;8.62;97.91;100413.22;6156963;23;19916;-78
2024/03/23 06:48:33;;;;;;;;;;;;;;;8.38;97.91;100414.44;6156066;23;19984;-75
2024/03/23 06:50:59;;;;;;;;;;;;;;;9.73;90.49;100420.63;6156140;23;19927;-75
2024/03/23 06:53:29;;;;;;;;;;;;;;;9.45;87.18;100426.91;6156563;23;19923;-76
2024/03/23 06:56:02;;;;;;;;;;;;;;;10.30;84.58;100432.75;6149113;23;20451;-74
2024/03/23 06:58:27;;;;;;;;;;;;;;;10.12;83.45;100438.69;6152865;23;19996;-75
2024/03/23 07:00:52;;;;;;;;;;;;;;;10.13;83.48;100443.06;6153450;23;19936;-74
2024/03/23 07:03:41;;;;;;;;;;;;;;;10.66;80.44;100438.78;6153588;23;19917;-75
2024/03/23 07:06:24;;;;;;;;;;;;;;;10.27;80.59;100435.84;6153175;23;20329;-75
2024/03/23 07:08:55;;;;;;;;;;;;;;;9.56;85.10;100445.16;6151309;23;19921;-76
2024/03/23 07:11:21;;;;;;;;;;;;;;;10.34;81.15;100446.59;6152191;23;19920;-75
2024/03/23 07:13:46;;;;;;;;;;;;;;;10.02;81.07;100446.34;6154532;23;19913;-75
2024/03/23 07:16:13;;;;;;;;;;;;;;;9.83;82.61;100438.03;6152304;23;20351;-75
2024/03/23 07:18:38;;;;;;;;;;;;;;;9.88;82.10;100436.59;6150235;23;20226;-75
2024/03/23 07:21:06;;;;;;;;;;;;;;;10.75;77.10;100440.22;6151872;23;20341;-75
2024/03/23 07:23:31;;;;;;;;;;;;;;;9.61;81.20;100434.66;6151026;23;19935;-75
2024/03/23 07:25:57;;;;;;;;;;;;;;;9.92;79.47;100433.28;6149489;23;19940;-77
2024/03/23 07:28:22;;;;;;;;;;;;;;;9.53;81.61;100438.31;6153350;23;19920;-76
2024/03/23 07:30:48;;;;;;;;;;;;;;;10.23;79.24;100437.28;6150878;23;20266;-76
2024/03/23 07:33:13;;;;;;;;;;;;;;;11.21;73.66;100430.38;6150235;23;19923;-76
2024/03/23 07:35:38;;;;;;;;;;;;;;;11.20;72.85;100433.31;6153942;23;19951;-73
2024/03/23 07:38:05;;;;;;;;;;;;;;;10.51;75.29;100438.16;6153229;23;20301;-76
2024/03/23 07:40:30;;;;;;;;;;;;;;;11.09;73.55;100431.28;6152987;23;19920;-75
2024/03/23 07:42:56;;;;;;;;;;;;;;;10.76;73.96;100417.66;6154466;23;19913;-76
2024/03/23 07:45:21;;;;;;;;;;;;;;;8.85;81.82;100420.19;6153027;23;19923;-76
2024/03/23 07:47:46;;;;;;;;;;;;;;;8.15;85.43;100412.81;6153856;23;19944;-76
2024/03/23 07:50:12;;;;;;;;;;;;;;;7.20;92.60;100411.94;6154135;23;19963;-76
2024/03/23 07:52:40;;;;;;;;;;;;;;;8.06;88.74;100415.78;6152882;23;19975;-74
2024/03/23 07:55:06;;;;;;;;;;;;;;;8.76;88.48;100413.31;6152378;23;20000;-75
2024/03/23 07:57:31;;;;;;;;;;;;;;;9.99;80.62;100425.25;6154467;23;19944;-76
2024/03/23 07:59:58;;;;;;;;;;;;;;;10.28;77.64;100415.97;6154247;23;19919;-76
2024/03/23 08:02:24;;;;;;;;;;;;;;;9.80;77.35;100416.91;6153818;23;19912;-75
2024/03/23 08:04:49;;;;;;;;;;;;;;;9.61;79.65;100418.53;6154396;23;19995;-76
2024/03/23 08:07:14;;;;;;;;;;;;;;;8.51;82.73;100416.44;6154729;23;19913;-77
2024/03/23 08:09:39;;;;;;;;;;;;;;;8.04;86.42;100416.81;6159166;23;19971;-76
2024/03/23 08:12:05;;;;;;;;;;;;;;;8.79;85.70;100418.31;6155698;23;19908;-77
2024/03/23 08:14:30;;;;;;;;;;;;;;;10.13;79.23;100418.84;6154821;23;19956;-77
2024/03/23 08:16:56;;;;;;;;;;;;;;;9.20;78.49;100417.50;6153141;23;19915;-77
2024/03/23 08:19:21;;;;;;;;;;;;;;;8.75;80.86;100409.78;6152455;23;19916;-76
2024/03/23 08:21:46;;;;;;;;;;;;;;;8.50;85.91;100414.75;6152207;23;19924;-78
2024/03/23 08:24:11;;;;;;;;;;;;;;;9.24;80.56;100423.31;6153250;23;19913;-77
2024/03/23 08:26:37;;;;;;;;;;;;;;;9.83;78.73;100421.91;6152476;23;19913;-77
2024/03/23 08:29:02;;;;;;;;;;;;;;;9.65;79.01;100418.94;6153590;23;19913;-77
2024/03/23 08:31:28;;;;;;;;;;;;;;;10.63;77.07;100416.84;6153180;23;20318;-77
2024/03/23 08:33:53;;;;;;;;;;;;;;;11.29;68.85;100421.28;6152476;23;19920;-78
2024/03/23 08:36:20;;;;;;;;;;;;;;;10.97;72.81;100423.00;6152957;23;19967;-78
2024/03/23 08:38:46;;;;;;;;;;;;;;;10.37;73.94;100421.13;6153326;23;20046;-77
2024/03/23 08:41:11;;;;;;;;;;;;;;;9.58;76.79;100420.75;6152508;23;19983;-78
2024/03/23 08:43:37;;;;;;;;;;;;;;;9.08;78.39;100432.50;6153497;23;19912;-78
2024/03/23 08:46:11;;;;;;;;;;;;;;;8.35;80.92;100429.06;6152963;23;19972;-78
2024/03/23 08:48:38;;;;;;;;;;;;;;;8.17;83.69;100420.63;6152549;23;19912;-78
2024/03/23 08:51:03;;;;;;;;;;;;;;;7.63;87.67;100420.06;6152173;23;19920;-78
2024/03/23 08:53:29;;;;;;;;;;;;;;;7.47;86.45;100409.59;6153166;23;19992;-78
2024/03/23 08:55:55;;;;;;;;;;;;;;;7.31;87.83;100422.16;6150989;23;19912;-78
2024/03/23 08:58:20;;;;;;;;;;;;;;;6.93;90.44;100416.91;6153645;23;19919;-78
2024/03/23 09:00:46;;;;;;;;;;;;;;;6.82;91.19;100419.03;6156774;23;19917;-78
2024/03/23 09:03:14;;;;;;;;;;;;;;;6.67;94.00;100419.00;6152697;23;19916;-78
2024/03/23 09:05:40;;;;;;;;;;;;;;;6.95;90.17;100413.03;6146757;23;19920;-78
2024/03/23 09:08:09;;;;;;;;;;;;;;;7.51;85.97;100408.19;6152320;23;19913;-78
2024/03/23 09:10:40;;;;;;;;;;;;;;;8.02;80.92;100412.69;6150121;23;19908;-78
2024/03/23 09:13:05;;;;;;;;;;;;;;;7.62;84.65;100398.84;6151046;23;19912;-77
2024/03/23 09:15:31;;;;;;;;;;;;;;;7.21;86.43;100406.38;6153573;23;19919;-77
2024/03/23 09:17:58;;;;;;;;;;;;;;;7.04;86.79;100413.78;6151965;23;19924;-77
2024/03/23 09:20:23;;;;;;;;;;;;;;;7.89;82.59;100403.47;6154286;23;19920;-77
2024/03/23 09:22:49;;;;;;;;;;;;;;;8.19;82.37;100407.88;6152886;23;19913;-77
2024/03/23 09:25:14;;;;;;;;;;;;;;;9.16;75.21;100418.09;6152512;23;20000;-77
2024/03/23 09:27:42;;;;;;;;;;;;;;;9.09;76.18;100410.81;6153715;23;19913;-77
2024/03/23 09:30:08;;;;;;;;;;;;;;;9.43;76.39;100411.00;6153503;23;19912;-77
2024/03/23 09:32:33;;;;;;;;;;;;;;;8.77;73.18;100404.25;6152441;23;20292;-78
2024/03/23 09:34:58;;;;;;;;;;;;;;;9.38;75.60;100400.00;6153222;23;19919;-77
2024/03/23 09:37:24;;;;;;;;;;;;;;;10.36;68.28;100401.50;6153546;23;19913;-78
2024/03/23 09:39:49;;;;;;;;;;;;;;;10.21;67.23;100398.19;6152114;23;19936;-78
2024/03/23 09:42:14;;;;;;;;;;;;;;;9.48;68.42;100400.50;6157806;23;19936;-78
2024/03/23 09:44:40;;;;;;;;;;;;;;;9.07;70.12;100387.91;6158043;23;19935;-78
2024/03/23 09:47:08;;;;;;;;;;;;;;;8.95;69.71;100385.78;6156414;23;19912;-79
2024/03/23 09:49:36;;;;;;;;;;;;;;;8.06;75.05;100407.75;6167351;23;19909;-77
2024/03/23 09:52:01;;;;;;;;;;;;;;;7.91;80.17;100405.97;6178545;23;19917;-78
2024/03/23 09:54:26;;;;;;;;;;;;;;;6.75;77.48;100407.38;6141618;23;19921;-78
2024/03/23 09:56:52;;;;;;;;;;;;;;;6.15;87.42;100396.56;6156427;23;19920;-76
2024/03/23 09:59:17;;;;;;;;;;;;;;;5.83;83.63;100405.59;6154153;23;19925;-77
2024/03/23 10:01:42;;;;;;;;;;;;;;;5.15;89.36;100395.44;6154190;23;19920;-77
2024/03/23 10:04:07;;;;;;;;;;;;;;;4.97;91.81;100388.47;6127961;23;19919;-76
2024/03/23 10:06:34;;;;;;;;;;;;;;;5.19;93.55;100390.59;6153924;23;19913;-76
2024/03/23 10:08:59;;;;;;;;;;;;;;;5.66;95.76;100386.16;6155205;23;19968;-77
2024/03/23 10:11:27;;;;;;;;;;;;;;;6.30;95.12;100387.75;6157236;23;19936;-76
2024/03/23 10:13:52;;;;;;;;;;;;;;;7.09;88.58;100381.94;6164036;23;19912;-77
2024/03/23 10:16:21;;;;;;;;;;;;;;;8.03;81.69;100392.91;6170571;23;19932;-78
2024/03/23 10:18:49;;;;;;;;;;;;;;;9.45;78.98;100389.28;6170345;23;19927;-77
2024/03/23 10:21:14;;;;;;;;;;;;;;;10.38;66.50;100388.69;6175885;23;19914;-76
2024/03/23 10:23:41;;;;;;;;;;;;;;;9.79;67.98;100391.06;6166161;23;20237;-76
2024/03/23 10:26:18;;;;;;;;;;;;;;;9.88;70.79;100388.22;6159522;23;19947;-76
2024/03/23 10:28:59;;;;;;;;;;;;;;;10.02;66.92;100395.25;6157819;23;19916;-76
2024/03/23 10:31:25;;;;;;;;;;;;;;;10.59;60.22;100376.88;6158684;23;19963;-77
2024/03/23 10:33:50;;;;;;;;;;;;;;;10.38;65.51;100372.56;6154948;23;20237;-77
2024/03/23 10:36:15;;;;;;;;;;;;;;;10.76;64.34;100369.19;6155924;23;19991;-77
2024/03/23 10:38:41;;;;;;;;;;;;;;;10.96;62.62;100372.88;6154834;23;19919;-76
2024/03/23 10:41:07;;;;;;;;;;;;;;;10.89;61.98;100387.16;6156693;23;19948;-76
2024/03/23 10:43:35;;;;;;;;;;;;;;;11.21;60.39;100391.84;6129366;23;20040;-76
2024/03/23 10:46:01;;;;;;;;;;;;;;;10.32;59.91;100401.06;6154040;23;19960;-77
2024/03/23 10:48:26;;;;;;;;;;;;;;;10.58;64.28;100383.28;6154322;23;19912;-76
2024/03/23 10:50:51;;;;;;;;;;;;;;;11.91;60.60;100393.00;6154364;23;20003;-77
2024/03/23 10:53:17;;;;;;;;;;;;;;;10.59;63.19;100393.03;6154463;23;19913;-75
2024/03/23 10:55:43;;;;;;;;;;;;;;;9.94;65.52;100387.38;6131323;23;20348;-74
2024/03/23 10:58:09;;;;;;;;;;;;;;;8.92;68.62;100388.84;6128313;23;19936;-75
2024/03/23 11:00:34;;;;;;;;;;;;;;;8.44;73.07;100402.94;6126733;23;19916;-75
2024/03/23 11:02:59;;;;;;;;;;;;;;;7.09;85.11;100403.34;6150259;23;19948;-75
2024/03/23 11:05:24;;;;;;;;;;;;;;;6.41;88.41;100402.53;6152074;23;19920;-75
2024/03/23 11:07:50;;;;;;;;;;;;;;;5.89;95.87;100397.72;6149631;23;19913;-75
2024/03/23 11:10:25;;;;;;;;;;;;;;;5.78;100.00;100390.13;6149611;23;19995;-76
2024/03/23 11:12:50;;;;;;;;;;;;;;;5.94;100.00;100383.81;6151903;23;20340;-75
2024/03/23 11:15:15;;;;;;;;;;;;;;;6.19;100.00;100367.63;6150674;23;19916;-75
2024/03/23 11:17:41;;;;;;;;;;;;;;;6.47;100.00;100377.72;6149773;23;20278;-76
2024/03/23 11:20:06;;;;;;;;;;;;;;;6.52;100.00;100384.22;6126422;23;19920;-76
2024/03/23 11:22:38;;;;;;;;;;;;;;;6.16;98.81;100392.88;6151644;23;19959;-76
2024/03/23 11:25:08;;;;;;;;;;;;;;;5.73;95.01;100389.81;6152876;23;19991;-76
2024/03/23 11:27:33;;;;;;;;;;;;;;;6.20;96.13;100377.31;6127633;23;20312;-76
2024/03/23 11:30:09;;;;;;;;;;;;;;;7.53;89.85;100366.81;6154242;23;19913;-76
2024/03/23 11:32:34;;;;;;;;;;;;;;;8.04;81.40;100368.56;6154919;23;20314;-77
2024/03/23 11:35:00;;;;;;;;;;;;;;;8.89;78.43;100375.00;6127151;23;19992;-76
2024/03/23 11:37:25;;;;;;;;;;;;;;;10.09;75.83;100363.81;6123372;23;20168;-77
2024/03/23 11:39:50;;;;;;;;;;;;;;;10.78;71.09;100366.28;6153126;23;19942;-77
2024/03/23 11:42:15;;;;;;;;;;;;;;;11.01;68.49;100367.69;6156566;23;19912;-78
2024/03/23 11:44:41;;;;;;;;;;;;;;;11.74;66.25;100368.38;6126054;23;19913;-78
2024/03/23 11:47:10;;;;;;;;;;;;;;;12.17;64.26;100365.03;6149698;23;19912;-77
2024/03/23 11:49:40;;;;;;;;;;;;;;;12.31;61.07;100362.22;6154584;23;19916;-77
2024/03/23 11:52:05;;;;;;;;;;;;;;;11.22;63.58;100367.38;6150922;23;19916;-76
2024/03/23 11:54:31;;;;;;;;;;;;;;;10.02;63.36;100360.28;6152554;23;19919;-77
2024/03/23 11:57:03;;;;;;;;;;;;;;;8.80;69.50;100356.34;6155100;23;19944;-76
2024/03/23 11:59:35;;;;;;;;;;;;;;;8.44;73.52;100346.59;6151330;23;19916;-76
2024/03/23 12:02:01;;;;;;;;;;;;;;;8.46;77.05;100341.06;6153128;23;20241;-76
2024/03/23 12:04:26;;;;;;;;;;;;;;;8.22;73.96;100348.50;6126545;23;19987;-76
2024/03/23 12:07:11;;;;;;;;;;;;;;;8.71;72.21;100340.63;6152619;23;19948;-74
2024/03/23 12:09:36;;;;;;;;;;;;;;;8.98;64.26;100344.28;6127383;23;19966;-76
2024/03/23 12:12:25;;;;;;;;;;;;;;;8.97;60.19;100345.28;6156420;23;20035;-76
2024/03/23 12:15:03;;;;;;;;;;;;;;;8.39;64.16;100356.25;6137781;23;19913;-77
2024/03/23 12:17:28;;;;;;;;;;;;;;;8.07;66.08;100347.75;6153446;23;19920;-77
2024/03/23 12:19:54;;;;;;;;;;;;;;;7.67;69.60;100350.91;6151742;23;19961;-76
2024/03/23 12:22:22;;;;;;;;;;;;;;;8.00;67.00;100337.78;6153497;23;19991;-76
2024/03/23 12:24:47;;;;;;;;;;;;;;;8.39;69.35;100338.31;6152071;23;19919;-75
2024/03/23 12:27:16;;;;;;;;;;;;;;;10.02;68.30;100353.03;6152179;23;19991;-77
2024/03/23 12:29:43;;;;;;;;;;;;;;;10.12;61.63;100344.56;6151520;23;20355;-75
2024/03/23 12:32:08;;;;;;;;;;;;;;;11.25;64.48;100341.06;6151951;23;19912;-76
2024/03/23 12:34:33;;;;;;;;;;;;;;;11.51;63.59;100337.41;6150970;23;19923;-75